Killarney, Ireland
Current Conditions -  °F | °C
As of 3:30 PM on Tuesday 21 Oct 2014 (Local Time) from EIKY Reporting Station
Scattered Clouds Scattered Clouds  
Wind Chill: 52°   Ceiling: Unl
Heat Index: 52°   Visibility: 6mi
Dew Point: 41°   Wind: 12mph
Humidity: 67%   Direction: 300°WNW
Pressure: 30.21"   Gusts: 26mph
Location:  52.05°N, 9.52°W
Report Text: EIKY 211530Z 30010G23KT 250V350 9999 SCT037 11/05 Q1023
Loading
Personal Weather Stations






























Interactive Weather Map
Tropical Storm Tracking
New forecast layout! Learn more

10-Day Weather Forecast

Advertisements
Track Severe Weather on mobile